sensor_id;sensor_type;location;lat;lon;timestamp;temperature;humidity
45491;DHT22;31237;45.586;13.782;2023-08-20T00:01:29;24.40;80.30
45491;DHT22;31237;45.586;13.782;2023-08-20T00:03:55;24.30;80.30
45491;DHT22;31237;45.586;13.782;2023-08-20T00:06:21;24.30;80.50
45491;DHT22;31237;45.586;13.782;2023-08-20T00:08:48;24.30;80.60
45491;DHT22;31237;45.586;13.782;2023-08-20T00:11:14;24.30;80.80
45491;DHT22;31237;45.586;13.782;2023-08-20T00:13:43;24.20;80.90
45491;DHT22;31237;45.586;13.782;2023-08-20T00:16:09;24.20;81.00
45491;DHT22;31237;45.586;13.782;2023-08-20T00:18:35;24.20;81.10
45491;DHT22;31237;45.586;13.782;2023-08-20T00:21:01;24.10;81.20
45491;DHT22;31237;45.586;13.782;2023-08-20T00:23:27;24.10;81.40
45491;DHT22;31237;45.586;13.782;2023-08-20T00:25:53;24.00;81.50
45491;DHT22;31237;45.586;13.782;2023-08-20T00:28:21;24.00;81.70
45491;DHT22;31237;45.586;13.782;2023-08-20T00:30:47;24.00;81.90
45491;DHT22;31237;45.586;13.782;2023-08-20T00:33:14;24.00;82.10
45491;DHT22;31237;45.586;13.782;2023-08-20T00:35:40;23.90;82.10
45491;DHT22;31237;45.586;13.782;2023-08-20T00:38:06;23.90;82.30
45491;DHT22;31237;45.586;13.782;2023-08-20T00:40:32;23.90;82.40
45491;DHT22;31237;45.586;13.782;2023-08-20T00:42:58;23.90;82.50
45491;DHT22;31237;45.586;13.782;2023-08-20T00:45:24;23.90;82.60
45491;DHT22;31237;45.586;13.782;2023-08-20T00:47:51;23.80;82.70
45491;DHT22;31237;45.586;13.782;2023-08-20T00:50:17;23.80;82.80
45491;DHT22;31237;45.586;13.782;2023-08-20T00:52:44;23.80;82.90
45491;DHT22;31237;45.586;13.782;2023-08-20T00:55:11;23.80;83.10
45491;DHT22;31237;45.586;13.782;2023-08-20T00:57:39;23.80;83.10
45491;DHT22;31237;45.586;13.782;2023-08-20T01:00:05;23.80;83.20
45491;DHT22;31237;45.586;13.782;2023-08-20T01:02:37;23.70;83.20
45491;DHT22;31237;45.586;13.782;2023-08-20T01:05:04;23.70;83.40
45491;DHT22;31237;45.586;13.782;2023-08-20T01:12:39;23.70;83.70
45491;DHT22;31237;45.586;13.782;2023-08-20T01:15:05;23.60;83.70
45491;DHT22;31237;45.586;13.782;2023-08-20T01:17:31;23.60;83.80
45491;DHT22;31237;45.586;13.782;2023-08-20T01:19:56;23.60;83.90
45491;DHT22;31237;45.586;13.782;2023-08-20T01:30:16;23.60;84.30
45491;DHT22;31237;45.586;13.782;2023-08-20T01:32:43;23.60;84.40
45491;DHT22;31237;45.586;13.782;2023-08-20T01:35:12;23.60;84.60
45491;DHT22;31237;45.586;13.782;2023-08-20T01:37:39;23.60;84.70
45491;DHT22;31237;45.586;13.782;2023-08-20T01:40:07;23.60;85.00
45491;DHT22;31237;45.586;13.782;2023-08-20T01:42:35;23.60;85.10
45491;DHT22;31237;45.586;13.782;2023-08-20T01:45:00;23.70;85.30
45491;DHT22;31237;45.586;13.782;2023-08-20T01:47:26;23.60;85.30
45491;DHT22;31237;45.586;13.782;2023-08-20T01:49:52;23.70;85.30
45491;DHT22;31237;45.586;13.782;2023-08-20T01:52:17;23.70;85.40
45491;DHT22;31237;45.586;13.782;2023-08-20T01:54:43;23.80;85.50
45491;DHT22;31237;45.586;13.782;2023-08-20T01:57:09;23.80;85.50
45491;DHT22;31237;45.586;13.782;2023-08-20T01:59:35;23.80;85.50
45491;DHT22;31237;45.586;13.782;2023-08-20T02:02:01;23.90;85.60
45491;DHT22;31237;45.586;13.782;2023-08-20T02:04:27;23.90;85.50
45491;DHT22;31237;45.586;13.782;2023-08-20T02:06:53;23.90;85.40
45491;DHT22;31237;45.586;13.782;2023-08-20T02:09:18;24.00;85.20
45491;DHT22;31237;45.586;13.782;2023-08-20T02:11:45;24.00;85.10
45491;DHT22;31237;45.586;13.782;2023-08-20T02:14:11;24.10;85.00
45491;DHT22;31237;45.586;13.782;2023-08-20T02:16:37;24.10;84.90
45491;DHT22;31237;45.586;13.782;2023-08-20T02:19:02;24.20;84.80
45491;DHT22;31237;45.586;13.782;2023-08-20T02:21:30;24.20;84.60
45491;DHT22;31237;45.586;13.782;2023-08-20T02:23:56;24.20;84.50
45491;DHT22;31237;45.586;13.782;2023-08-20T02:26:21;24.20;84.40
45491;DHT22;31237;45.586;13.782;2023-08-20T02:28:47;24.20;84.30
45491;DHT22;31237;45.586;13.782;2023-08-20T02:31:13;24.20;84.40
45491;DHT22;31237;45.586;13.782;2023-08-20T02:33:38;24.20;84.40
45491;DHT22;31237;45.586;13.782;2023-08-20T02:36:04;24.20;84.60
45491;DHT22;31237;45.586;13.782;2023-08-20T02:38:30;24.20;84.60
45491;DHT22;31237;45.586;13.782;2023-08-20T02:40:56;24.20;84.70
45491;DHT22;31237;45.586;13.782;2023-08-20T02:43:22;24.20;84.80
45491;DHT22;31237;45.586;13.782;2023-08-20T02:45:47;24.20;85.00
45491;DHT22;31237;45.586;13.782;2023-08-20T02:48:14;24.20;85.10
45491;DHT22;31237;45.586;13.782;2023-08-20T02:50:40;24.20;85.10
45491;DHT22;31237;45.586;13.782;2023-08-20T02:53:06;24.20;85.20
45491;DHT22;31237;45.586;13.782;2023-08-20T02:55:32;24.20;85.20
45491;DHT22;31237;45.586;13.782;2023-08-20T02:57:58;24.10;85.20
45491;DHT22;31237;45.586;13.782;2023-08-20T03:00:24;24.10;85.30
45491;DHT22;31237;45.586;13.782;2023-08-20T03:02:49;24.10;85.30
45491;DHT22;31237;45.586;13.782;2023-08-20T03:05:15;24.00;85.40
45491;DHT22;31237;45.586;13.782;2023-08-20T03:07:41;24.00;85.50
45491;DHT22;31237;45.586;13.782;2023-08-20T03:10:07;24.00;85.70
45491;DHT22;31237;45.586;13.782;2023-08-20T03:12:32;23.90;85.80
45491;DHT22;31237;45.586;13.782;2023-08-20T03:14:59;23.90;85.90
45491;DHT22;31237;45.586;13.782;2023-08-20T03:17:25;23.90;86.00
45491;DHT22;31237;45.586;13.782;2023-08-20T03:20:00;23.90;86.10
45491;DHT22;31237;45.586;13.782;2023-08-20T03:22:27;23.80;86.10
45491;DHT22;31237;45.586;13.782;2023-08-20T03:24:53;23.80;86.30
45491;DHT22;31237;45.586;13.782;2023-08-20T03:27:19;23.70;86.40
45491;DHT22;31237;45.586;13.782;2023-08-20T03:29:45;23.70;86.50
45491;DHT22;31237;45.586;13.782;2023-08-20T03:32:12;23.60;86.50
45491;DHT22;31237;45.586;13.782;2023-08-20T03:34:37;23.60;86.60
45491;DHT22;31237;45.586;13.782;2023-08-20T03:37:04;23.60;86.80
45491;DHT22;31237;45.586;13.782;2023-08-20T03:39:30;23.60;86.80
45491;DHT22;31237;45.586;13.782;2023-08-20T03:41:57;23.60;86.90
45491;DHT22;31237;45.586;13.782;2023-08-20T03:44:23;23.60;86.90
45491;DHT22;31237;45.586;13.782;2023-08-20T03:46:48;23.60;86.80
45491;DHT22;31237;45.586;13.782;2023-08-20T03:49:14;23.60;86.80
45491;DHT22;31237;45.586;13.782;2023-08-20T03:51:40;23.60;86.90
45491;DHT22;31237;45.586;13.782;2023-08-20T03:54:08;23.60;86.90
45491;DHT22;31237;45.586;13.782;2023-08-20T03:56:34;23.50;87.00
45491;DHT22;31237;45.586;13.782;2023-08-20T03:58:59;23.50;87.10
45491;DHT22;31237;45.586;13.782;2023-08-20T04:01:25;23.50;87.20
45491;DHT22;31237;45.586;13.782;2023-08-20T04:03:51;23.50;87.20
45491;DHT22;31237;45.586;13.782;2023-08-20T04:06:16;23.40;87.30
45491;DHT22;31237;45.586;13.782;2023-08-20T04:08:42;23.40;87.40
45491;DHT22;31237;45.586;13.782;2023-08-20T04:11:08;23.40;87.50
45491;DHT22;31237;45.586;13.782;2023-08-20T04:13:34;23.30;87.50
45491;DHT22;31237;45.586;13.782;2023-08-20T04:16:00;23.30;87.60
45491;DHT22;31237;45.586;13.782;2023-08-20T04:18:25;23.30;87.70
45491;DHT22;31237;45.586;13.782;2023-08-20T04:20:52;23.30;87.90
45491;DHT22;31237;45.586;13.782;2023-08-20T04:23:19;23.30;87.90
45491;DHT22;31237;45.586;13.782;2023-08-20T04:25:45;23.30;88.00
45491;DHT22;31237;45.586;13.782;2023-08-20T04:28:14;23.30;88.00
45491;DHT22;31237;45.586;13.782;2023-08-20T04:30:40;23.30;88.00
45491;DHT22;31237;45.586;13.782;2023-08-20T04:33:06;23.30;88.00
45491;DHT22;31237;45.586;13.782;2023-08-20T04:35:31;23.30;88.00
45491;DHT22;31237;45.586;13.782;2023-08-20T04:37:57;23.30;88.10
45491;DHT22;31237;45.586;13.782;2023-08-20T04:40:23;23.30;88.10
45491;DHT22;31237;45.586;13.782;2023-08-20T04:42:49;23.30;88.10
45491;DHT22;31237;45.586;13.782;2023-08-20T04:45:15;23.30;88.10
45491;DHT22;31237;45.586;13.782;2023-08-20T04:47:43;23.40;88.20
45491;DHT22;31237;45.586;13.782;2023-08-20T04:50:09;23.40;88.10
45491;DHT22;31237;45.586;13.782;2023-08-20T04:52:35;23.40;88.20
45491;DHT22;31237;45.586;13.782;2023-08-20T04:55:01;23.40;88.20
45491;DHT22;31237;45.586;13.782;2023-08-20T04:57:27;23.50;88.20
45491;DHT22;31237;45.586;13.782;2023-08-20T04:59:53;23.50;88.20
45491;DHT22;31237;45.586;13.782;2023-08-20T05:02:19;23.50;88.20
45491;DHT22;31237;45.586;13.782;2023-08-20T05:04:45;23.60;88.30
45491;DHT22;31237;45.586;13.782;2023-08-20T05:07:10;23.60;88.30
45491;DHT22;31237;45.586;13.782;2023-08-20T05:09:36;23.60;88.30
45491;DHT22;31237;45.586;13.782;2023-08-20T05:12:02;23.60;88.40
45491;DHT22;31237;45.586;13.782;2023-08-20T05:14:29;23.70;88.50
45491;DHT22;31237;45.586;13.782;2023-08-20T05:16:55;23.70;88.60
45491;DHT22;31237;45.586;13.782;2023-08-20T05:19:21;23.70;88.60
45491;DHT22;31237;45.586;13.782;2023-08-20T05:21:47;23.70;88.70
45491;DHT22;31237;45.586;13.782;2023-08-20T05:24:13;23.80;88.90
45491;DHT22;31237;45.586;13.782;2023-08-20T05:26:38;23.80;89.00
45491;DHT22;31237;45.586;13.782;2023-08-20T05:29:04;23.90;89.10
45491;DHT22;31237;45.586;13.782;2023-08-20T05:31:30;23.90;89.20
45491;DHT22;31237;45.586;13.782;2023-08-20T05:33:55;23.90;89.40
45491;DHT22;31237;45.586;13.782;2023-08-20T05:36:22;24.00;89.30
45491;DHT22;31237;45.586;13.782;2023-08-20T05:38:48;24.00;89.30
45491;DHT22;31237;45.586;13.782;2023-08-20T05:41:14;24.10;89.20
45491;DHT22;31237;45.586;13.782;2023-08-20T05:43:39;24.10;89.20
45491;DHT22;31237;45.586;13.782;2023-08-20T05:46:05;24.20;89.20
45491;DHT22;31237;45.586;13.782;2023-08-20T05:48:31;24.20;89.10
45491;DHT22;31237;45.586;13.782;2023-08-20T05:50:56;24.20;89.10
45491;DHT22;31237;45.586;13.782;2023-08-20T05:53:22;24.30;89.10
45491;DHT22;31237;45.586;13.782;2023-08-20T05:55:49;24.30;89.00
45491;DHT22;31237;45.586;13.782;2023-08-20T05:58:14;24.40;89.00
45491;DHT22;31237;45.586;13.782;2023-08-20T06:00:40;24.50;89.00
45491;DHT22;31237;45.586;13.782;2023-08-20T06:03:06;24.50;88.80
45491;DHT22;31237;45.586;13.782;2023-08-20T06:05:33;24.60;88.80
45491;DHT22;31237;45.586;13.782;2023-08-20T06:07:59;24.70;88.80
45491;DHT22;31237;45.586;13.782;2023-08-20T06:10:25;24.70;88.60
45491;DHT22;31237;45.586;13.782;2023-08-20T06:12:52;24.80;88.50
45491;DHT22;31237;45.586;13.782;2023-08-20T06:15:18;24.90;88.40
45491;DHT22;31237;45.586;13.782;2023-08-20T06:17:44;25.00;88.20
45491;DHT22;31237;45.586;13.782;2023-08-20T06:20:10;25.10;87.90
45491;DHT22;31237;45.586;13.782;2023-08-20T06:22:39;25.10;87.80
45491;DHT22;31237;45.586;13.782;2023-08-20T06:25:05;25.20;87.80
45491;DHT22;31237;45.586;13.782;2023-08-20T06:27:31;25.30;87.70
45491;DHT22;31237;45.586;13.782;2023-08-20T06:29:57;25.30;87.50
45491;DHT22;31237;45.586;13.782;2023-08-20T06:32:24;25.40;87.30
45491;DHT22;31237;45.586;13.782;2023-08-20T06:34:49;25.40;87.30
45491;DHT22;31237;45.586;13.782;2023-08-20T06:37:15;25.50;87.30
45491;DHT22;31237;45.586;13.782;2023-08-20T06:39:41;25.60;87.20
45491;DHT22;31237;45.586;13.782;2023-08-20T06:42:06;25.60;87.10
45491;DHT22;31237;45.586;13.782;2023-08-20T06:44:33;25.70;87.00
45491;DHT22;31237;45.586;13.782;2023-08-20T06:47:00;25.70;86.90
45491;DHT22;31237;45.586;13.782;2023-08-20T06:49:26;25.80;86.80
45491;DHT22;31237;45.586;13.782;2023-08-20T06:51:52;25.90;86.60
45491;DHT22;31237;45.586;13.782;2023-08-20T06:54:17;26.00;86.40
45491;DHT22;31237;45.586;13.782;2023-08-20T06:56:43;26.00;86.10
45491;DHT22;31237;45.586;13.782;2023-08-20T06:59:09;26.10;85.80
45491;DHT22;31237;45.586;13.782;2023-08-20T07:01:36;26.20;85.70
45491;DHT22;31237;45.586;13.782;2023-08-20T07:04:01;26.30;85.50
45491;DHT22;31237;45.586;13.782;2023-08-20T07:06:27;26.30;85.10
45491;DHT22;31237;45.586;13.782;2023-08-20T07:08:53;26.40;85.10
45491;DHT22;31237;45.586;13.782;2023-08-20T07:11:19;26.40;84.70
45491;DHT22;31237;45.586;13.782;2023-08-20T07:13:45;26.50;84.40
45491;DHT22;31237;45.586;13.782;2023-08-20T07:16:11;26.60;83.90
45491;DHT22;31237;45.586;13.782;2023-08-20T07:18:36;26.70;83.80
45491;DHT22;31237;45.586;13.782;2023-08-20T07:21:02;26.70;83.50
45491;DHT22;31237;45.586;13.782;2023-08-20T07:23:28;26.80;83.10
45491;DHT22;31237;45.586;13.782;2023-08-20T07:26:08;26.90;82.80
45491;DHT22;31237;45.586;13.782;2023-08-20T07:28:34;27.00;82.60
45491;DHT22;31237;45.586;13.782;2023-08-20T07:31:18;27.00;82.60
45491;DHT22;31237;45.586;13.782;2023-08-20T07:33:48;27.10;82.40
45491;DHT22;31237;45.586;13.782;2023-08-20T07:36:14;27.20;82.40
45491;DHT22;31237;45.586;13.782;2023-08-20T07:38:40;27.30;81.70
45491;DHT22;31237;45.586;13.782;2023-08-20T07:41:10;27.40;81.10
45491;DHT22;31237;45.586;13.782;2023-08-20T07:43:38;27.50;80.40
45491;DHT22;31237;45.586;13.782;2023-08-20T07:46:07;27.60;80.50
45491;DHT22;31237;45.586;13.782;2023-08-20T07:48:34;27.60;80.40
45491;DHT22;31237;45.586;13.782;2023-08-20T07:51:00;27.70;80.20
45491;DHT22;31237;45.586;13.782;2023-08-20T07:53:26;27.80;79.90
45491;DHT22;31237;45.586;13.782;2023-08-20T07:55:52;27.90;79.90
45491;DHT22;31237;45.586;13.782;2023-08-20T07:58:17;28.00;79.40
45491;DHT22;31237;45.586;13.782;2023-08-20T08:00:43;28.10;78.80
45491;DHT22;31237;45.586;13.782;2023-08-20T08:03:09;28.20;78.60
45491;DHT22;31237;45.586;13.782;2023-08-20T08:05:35;28.30;78.30
45491;DHT22;31237;45.586;13.782;2023-08-20T08:08:02;28.40;78.00
45491;DHT22;31237;45.586;13.782;2023-08-20T08:10:28;28.50;77.90
45491;DHT22;31237;45.586;13.782;2023-08-20T08:12:54;28.50;77.80
45491;DHT22;31237;45.586;13.782;2023-08-20T08:15:20;28.70;77.50
45491;DHT22;31237;45.586;13.782;2023-08-20T08:17:46;28.80;77.10
45491;DHT22;31237;45.586;13.782;2023-08-20T08:20:11;28.90;76.90
45491;DHT22;31237;45.586;13.782;2023-08-20T08:22:37;29.00;76.60
45491;DHT22;31237;45.586;13.782;2023-08-20T08:25:03;29.00;76.20
45491;DHT22;31237;45.586;13.782;2023-08-20T08:27:29;29.10;75.80
45491;DHT22;31237;45.586;13.782;2023-08-20T08:29:54;29.20;75.30
45491;DHT22;31237;45.586;13.782;2023-08-20T08:32:20;29.30;74.10
45491;DHT22;31237;45.586;13.782;2023-08-20T08:34:46;29.30;73.70
45491;DHT22;31237;45.586;13.782;2023-08-20T08:37:11;29.40;73.50
45491;DHT22;31237;45.586;13.782;2023-08-20T08:39:37;29.40;73.00
45491;DHT22;31237;45.586;13.782;2023-08-20T08:42:04;29.40;72.80
45491;DHT22;31237;45.586;13.782;2023-08-20T08:44:32;29.50;72.70
45491;DHT22;31237;45.586;13.782;2023-08-20T08:47:07;29.60;71.80
45491;DHT22;31237;45.586;13.782;2023-08-20T08:49:36;29.70;71.30
45491;DHT22;31237;45.586;13.782;2023-08-20T08:52:03;29.70;71.20
45491;DHT22;31237;45.586;13.782;2023-08-20T08:54:30;29.80;71.10
45491;DHT22;31237;45.586;13.782;2023-08-20T08:56:58;29.80;71.00
45491;DHT22;31237;45.586;13.782;2023-08-20T08:59:23;29.90;69.40
45491;DHT22;31237;45.586;13.782;2023-08-20T09:01:49;29.90;69.60
45491;DHT22;31237;45.586;13.782;2023-08-20T09:04:15;30.00;69.80
45491;DHT22;31237;45.586;13.782;2023-08-20T09:06:52;30.10;69.80
45491;DHT22;31237;45.586;13.782;2023-08-20T09:09:18;30.20;70.20
45491;DHT22;31237;45.586;13.782;2023-08-20T09:11:45;30.30;69.40
45491;DHT22;31237;45.586;13.782;2023-08-20T09:14:21;30.30;69.00
45491;DHT22;31237;45.586;13.782;2023-08-20T09:16:55;30.40;68.60
45491;DHT22;31237;45.586;13.782;2023-08-20T09:19:21;30.40;67.80
45491;DHT22;31237;45.586;13.782;2023-08-20T09:21:47;30.50;67.20
45491;DHT22;31237;45.586;13.782;2023-08-20T09:24:14;30.50;67.00
45491;DHT22;31237;45.586;13.782;2023-08-20T09:26:39;30.60;66.70
45491;DHT22;31237;45.586;13.782;2023-08-20T09:29:06;30.60;66.50
45491;DHT22;31237;45.586;13.782;2023-08-20T09:31:38;30.70;66.20
45491;DHT22;31237;45.586;13.782;2023-08-20T09:34:04;30.80;65.70
45491;DHT22;31237;45.586;13.782;2023-08-20T09:36:34;30.80;65.30
45491;DHT22;31237;45.586;13.782;2023-08-20T09:39:03;30.80;64.90
45491;DHT22;31237;45.586;13.782;2023-08-20T09:41:29;30.80;65.10
45491;DHT22;31237;45.586;13.782;2023-08-20T09:43:57;30.90;65.50
45491;DHT22;31237;45.586;13.782;2023-08-20T09:46:24;31.00;65.70
45491;DHT22;31237;45.586;13.782;2023-08-20T09:48:51;31.10;65.10
45491;DHT22;31237;45.586;13.782;2023-08-20T09:51:21;31.10;65.50
45491;DHT22;31237;45.586;13.782;2023-08-20T09:54:06;31.20;65.10
45491;DHT22;31237;45.586;13.782;2023-08-20T09:56:38;31.30;64.70
45491;DHT22;31237;45.586;13.782;2023-08-20T09:59:06;31.30;64.60
45491;DHT22;31237;45.586;13.782;2023-08-20T10:01:32;31.40;64.40
45491;DHT22;31237;45.586;13.782;2023-08-20T10:03:58;31.40;65.00
45491;DHT22;31237;45.586;13.782;2023-08-20T10:06:25;31.50;64.20
45491;DHT22;31237;45.586;13.782;2023-08-20T10:08:51;31.50;64.30
45491;DHT22;31237;45.586;13.782;2023-08-20T10:11:18;31.50;63.90
45491;DHT22;31237;45.586;13.782;2023-08-20T10:13:44;31.50;63.90
45491;DHT22;31237;45.586;13.782;2023-08-20T10:16:13;31.50;63.30
45491;DHT22;31237;45.586;13.782;2023-08-20T10:18:39;31.50;63.00
45491;DHT22;31237;45.586;13.782;2023-08-20T10:21:05;31.60;63.70
45491;DHT22;31237;45.586;13.782;2023-08-20T10:23:36;31.60;63.50
45491;DHT22;31237;45.586;13.782;2023-08-20T10:26:09;31.70;64.30
45491;DHT22;31237;45.586;13.782;2023-08-20T10:28:35;31.70;63.60
45491;DHT22;31237;45.586;13.782;2023-08-20T10:31:05;31.70;63.40
45491;DHT22;31237;45.586;13.782;2023-08-20T10:36:16;31.90;64.00
45491;DHT22;31237;45.586;13.782;2023-08-20T10:38:45;32.00;63.90
45491;DHT22;31237;45.586;13.782;2023-08-20T10:41:11;32.10;63.90
45491;DHT22;31237;45.586;13.782;2023-08-20T10:43:39;32.20;63.20
45491;DHT22;31237;45.586;13.782;2023-08-20T10:46:06;32.20;62.90
45491;DHT22;31237;45.586;13.782;2023-08-20T10:48:33;32.20;61.10
45491;DHT22;31237;45.586;13.782;2023-08-20T10:51:13;32.10;61.50
45491;DHT22;31237;45.586;13.782;2023-08-20T10:53:40;32.10;61.50
45491;DHT22;31237;45.586;13.782;2023-08-20T10:58:43;32.10;62.60
45491;DHT22;31237;45.586;13.782;2023-08-20T11:01:19;32.10;62.60
45491;DHT22;31237;45.586;13.782;2023-08-20T11:03:46;32.20;62.60
45491;DHT22;31237;45.586;13.782;2023-08-20T11:06:12;32.20;62.80
45491;DHT22;31237;45.586;13.782;2023-08-20T11:08:39;32.30;63.10
45491;DHT22;31237;45.586;13.782;2023-08-20T11:11:05;32.40;63.00
45491;DHT22;31237;45.586;13.782;2023-08-20T11:13:32;32.40;61.60
45491;DHT22;31237;45.586;13.782;2023-08-20T11:16:00;32.40;61.60
45491;DHT22;31237;45.586;13.782;2023-08-20T11:18:31;32.40;61.30
45491;DHT22;31237;45.586;13.782;2023-08-20T11:20:57;32.40;62.40
45491;DHT22;31237;45.586;13.782;2023-08-20T11:23:23;32.40;61.10
45491;DHT22;31237;45.586;13.782;2023-08-20T11:25:50;32.40;61.20
45491;DHT22;31237;45.586;13.782;2023-08-20T11:28:17;32.50;61.20
45491;DHT22;31237;45.586;13.782;2023-08-20T11:30:43;32.50;60.90
45491;DHT22;31237;45.586;13.782;2023-08-20T11:33:09;32.50;60.70
45491;DHT22;31237;45.586;13.782;2023-08-20T11:35:35;32.60;60.90
45491;DHT22;31237;45.586;13.782;2023-08-20T11:38:03;32.60;60.90
45491;DHT22;31237;45.586;13.782;2023-08-20T11:40:29;32.60;60.80
45491;DHT22;31237;45.586;13.782;2023-08-20T11:42:55;32.60;60.90
45491;DHT22;31237;45.586;13.782;2023-08-20T11:45:21;32.60;60.50
45491;DHT22;31237;45.586;13.782;2023-08-20T11:47:46;32.60;60.30
45491;DHT22;31237;45.586;13.782;2023-08-20T11:50:12;32.50;60.00
45491;DHT22;31237;45.586;13.782;2023-08-20T11:52:39;32.50;59.70
45491;DHT22;31237;45.586;13.782;2023-08-20T11:55:08;32.50;59.40
45491;DHT22;31237;45.586;13.782;2023-08-20T11:57:34;32.40;60.00
45491;DHT22;31237;45.586;13.782;2023-08-20T12:00:04;32.40;61.10
45491;DHT22;31237;45.586;13.782;2023-08-20T12:02:31;32.40;60.80
45491;DHT22;31237;45.586;13.782;2023-08-20T12:04:57;32.40;60.60
45491;DHT22;31237;45.586;13.782;2023-08-20T12:07:27;32.40;60.00
45491;DHT22;31237;45.586;13.782;2023-08-20T12:09:56;32.40;60.30
45491;DHT22;31237;45.586;13.782;2023-08-20T12:12:22;32.40;59.90
45491;DHT22;31237;45.586;13.782;2023-08-20T12:14:48;32.30;60.00
45491;DHT22;31237;45.586;13.782;2023-08-20T12:17:18;32.30;59.90
45491;DHT22;31237;45.586;13.782;2023-08-20T12:19:44;32.30;59.80
45491;DHT22;31237;45.586;13.782;2023-08-20T12:22:10;32.20;60.00
45491;DHT22;31237;45.586;13.782;2023-08-20T12:24:36;32.20;60.20
45491;DHT22;31237;45.586;13.782;2023-08-20T12:27:01;32.20;60.10
45491;DHT22;31237;45.586;13.782;2023-08-20T12:29:29;32.20;60.60
45491;DHT22;31237;45.586;13.782;2023-08-20T12:31:55;32.20;61.30
45491;DHT22;31237;45.586;13.782;2023-08-20T12:34:20;32.20;60.50
45491;DHT22;31237;45.586;13.782;2023-08-20T12:36:51;32.20;60.10
45491;DHT22;31237;45.586;13.782;2023-08-20T12:39:17;32.10;60.20
45491;DHT22;31237;45.586;13.782;2023-08-20T12:41:42;32.00;60.40
45491;DHT22;31237;45.586;13.782;2023-08-20T12:44:08;32.00;60.80
45491;DHT22;31237;45.586;13.782;2023-08-20T12:46:34;32.00;61.10
45491;DHT22;31237;45.586;13.782;2023-08-20T12:49:00;32.00;60.60
45491;DHT22;31237;45.586;13.782;2023-08-20T12:51:26;32.00;61.10
45491;DHT22;31237;45.586;13.782;2023-08-20T12:53:52;32.00;61.10
45491;DHT22;31237;45.586;13.782;2023-08-20T12:56:18;32.00;61.40
45491;DHT22;31237;45.586;13.782;2023-08-20T12:58:44;32.00;61.40
45491;DHT22;31237;45.586;13.782;2023-08-20T13:01:09;32.00;61.40
45491;DHT22;31237;45.586;13.782;2023-08-20T13:03:35;31.90;61.60
45491;DHT22;31237;45.586;13.782;2023-08-20T13:06:01;32.00;61.90
45491;DHT22;31237;45.586;13.782;2023-08-20T13:08:27;31.90;62.20
45491;DHT22;31237;45.586;13.782;2023-08-20T13:10:55;31.90;62.20
45491;DHT22;31237;45.586;13.782;2023-08-20T13:13:22;31.90;61.10
45491;DHT22;31237;45.586;13.782;2023-08-20T13:15:52;31.90;61.10
45491;DHT22;31237;45.586;13.782;2023-08-20T13:18:18;31.80;60.90
45491;DHT22;31237;45.586;13.782;2023-08-20T13:20:44;31.80;61.00
45491;DHT22;31237;45.586;13.782;2023-08-20T13:23:10;31.70;60.70
45491;DHT22;31237;45.586;13.782;2023-08-20T13:25:36;31.70;60.80
45491;DHT22;31237;45.586;13.782;2023-08-20T13:28:02;31.70;61.60
45491;DHT22;31237;45.586;13.782;2023-08-20T13:30:28;31.70;62.10
45491;DHT22;31237;45.586;13.782;2023-08-20T13:33:01;31.70;62.20
45491;DHT22;31237;45.586;13.782;2023-08-20T13:35:26;31.70;61.80
45491;DHT22;31237;45.586;13.782;2023-08-20T13:37:52;31.70;61.70
45491;DHT22;31237;45.586;13.782;2023-08-20T13:40:18;31.60;61.60
45491;DHT22;31237;45.586;13.782;2023-08-20T13:42:53;31.60;60.90
45491;DHT22;31237;45.586;13.782;2023-08-20T13:45:26;31.60;60.80
45491;DHT22;31237;45.586;13.782;2023-08-20T13:47:52;31.50;62.10
45491;DHT22;31237;45.586;13.782;2023-08-20T13:50:18;31.50;61.60
45491;DHT22;31237;45.586;13.782;2023-08-20T13:52:43;31.50;61.40
45491;DHT22;31237;45.586;13.782;2023-08-20T13:55:27;31.50;61.80
45491;DHT22;31237;45.586;13.782;2023-08-20T13:57:53;31.50;62.70
45491;DHT22;31237;45.586;13.782;2023-08-20T14:00:19;31.50;62.90
45491;DHT22;31237;45.586;13.782;2023-08-20T14:02:45;31.40;62.40
45491;DHT22;31237;45.586;13.782;2023-08-20T14:05:10;31.40;62.50
45491;DHT22;31237;45.586;13.782;2023-08-20T14:07:36;31.30;61.80
45491;DHT22;31237;45.586;13.782;2023-08-20T14:10:03;31.30;62.00
45491;DHT22;31237;45.586;13.782;2023-08-20T14:12:29;31.30;62.20
45491;DHT22;31237;45.586;13.782;2023-08-20T14:14:55;31.30;62.50
45491;DHT22;31237;45.586;13.782;2023-08-20T14:17:24;31.30;62.70
45491;DHT22;31237;45.586;13.782;2023-08-20T14:19:50;31.30;62.70
45491;DHT22;31237;45.586;13.782;2023-08-20T14:22:18;31.20;62.50
45491;DHT22;31237;45.586;13.782;2023-08-20T14:24:44;31.20;62.60
45491;DHT22;31237;45.586;13.782;2023-08-20T14:27:10;31.10;62.60
45491;DHT22;31237;45.586;13.782;2023-08-20T14:29:36;31.10;62.80
45491;DHT22;31237;45.586;13.782;2023-08-20T14:32:02;31.10;62.80
45491;DHT22;31237;45.586;13.782;2023-08-20T14:34:28;31.10;62.90
45491;DHT22;31237;45.586;13.782;2023-08-20T14:36:53;31.10;63.00
45491;DHT22;31237;45.586;13.782;2023-08-20T14:39:20;31.10;63.40
45491;DHT22;31237;45.586;13.782;2023-08-20T14:41:46;31.10;63.50
45491;DHT22;31237;45.586;13.782;2023-08-20T14:44:11;31.10;63.50
45491;DHT22;31237;45.586;13.782;2023-08-20T14:46:37;31.00;63.50
45491;DHT22;31237;45.586;13.782;2023-08-20T14:49:03;31.10;63.60
45491;DHT22;31237;45.586;13.782;2023-08-20T14:51:29;31.00;63.50
45491;DHT22;31237;45.586;13.782;2023-08-20T14:53:55;31.00;63.50
45491;DHT22;31237;45.586;13.782;2023-08-20T14:56:21;31.00;63.40
45491;DHT22;31237;45.586;13.782;2023-08-20T14:58:46;31.00;63.10
45491;DHT22;31237;45.586;13.782;2023-08-20T15:01:12;31.00;63.10
45491;DHT22;31237;45.586;13.782;2023-08-20T15:03:38;30.90;63.20
45491;DHT22;31237;45.586;13.782;2023-08-20T15:06:04;30.90;63.50
45491;DHT22;31237;45.586;13.782;2023-08-20T15:08:30;30.90;63.60
45491;DHT22;31237;45.586;13.782;2023-08-20T15:10:57;30.90;63.40
45491;DHT22;31237;45.586;13.782;2023-08-20T15:13:24;30.90;62.80
45491;DHT22;31237;45.586;13.782;2023-08-20T15:15:53;30.90;62.30
45491;DHT22;31237;45.586;13.782;2023-08-20T15:18:19;30.90;62.50
45491;DHT22;31237;45.586;13.782;2023-08-20T15:20:45;30.90;62.20
45491;DHT22;31237;45.586;13.782;2023-08-20T15:23:11;30.80;62.20
45491;DHT22;31237;45.586;13.782;2023-08-20T15:25:37;30.80;62.30
45491;DHT22;31237;45.586;13.782;2023-08-20T15:28:03;30.80;62.30
45491;DHT22;31237;45.586;13.782;2023-08-20T15:30:29;30.80;62.40